Airfield :
LOGIN :

Register | Disclaimer

   EN    FR    IT 

 










Legend :    VFR   Marginal VFR   IFR   Intensive IFR   Very Intensive IFR
Visi :
Ceiling :
>= 8 km
>= 3000ft
5 to 8 km
1000 to 3000 ft
1500m to 5 km
500 to 1000 ft
800 to 1500m
200 to 500 ft
< 800m
< 200 ft
Symbols :   Thunderstorms  Fog  Heavy snow  Heavy precipitations  Wind > 20 kt
SIGMETs :     Misc.  Thunderstorms  Icing  Turbulence  Mountain Waves  Volcanic Ashes






- Airport Elevation : 59 ft
- IATA code : TSF


LIPH - Treviso

CURRENT METAR :
  • 282150Z 29005KT 3500 BR NSC 06/05 Q1005

EXPIRED METARs :
  • 282120Z 27006KT 230V310 4000 BR NSC 07/06 Q1005
  • 282050Z 25006KT 4000 BR NSC 06/06 Q1005
  • 282020Z 28004KT 240V330 2000 BR NSC 06/06 Q1004
  • 281950Z VRB01KT 1200 R07/0450V0750D BCFG NSC 05/05 Q1004
  • 281920Z VRB02KT 2500 BR NSC 07/06 Q1004
  • 281850Z 29004KT 220V340 2500 BR NSC 07/07 Q1003

TAF TAF LIPH
Valid from the 28 at 18:00 until the 29 at 18:00 UTC


281700Z 2818/2918 VRB05KT 2000 BR BKN010
BECMG 2820/2824 0300 FG BKN002
BECMG 2907/2910 8000



MET'MAP, your aeronautical weather chart ! - Copyright ORBIFLY December 2007 - Disclaimer

ORBIFLY MET'MAP TEAM :

Programming & Development : Alexandra Zaïnal
Concept & original design : Baudouin d'Aumeries
Assistance for programming : Marc-Olivier Méhu
Technical & hardware support : Manuel Goepfert

Contact : metmap@orbifly.com




SOURCES & CREDITS :

   NOAA